Time;durP1;ratioP1;P1;durP2;ratioP2;P2;SDS_P1;SDS_P2;PMS_P1;PMS_P2;Temp;Humidity;BMP_temperature;BMP_pressure;BME280_temperature;BME280_humidity;BME280_pressure;Samples;Min_cycle;Max_cycle;Signal;HPM_P1;HPM_P2
2020/12/21 00:02:19;;;;;;;14.10;8.50;;;;;;;1.42;79.28;99749.16;125552;1095;65204;-90
2020/12/21 00:04:45;;;;;;;14.67;8.47;;;;;;;1.42;79.01;99757.05;125633;1096;65331;-93
2020/12/21 00:07:12;;;;;;;12.03;7.27;;;;;;;1.42;78.80;99767.58;125377;1095;65137;-89
2020/12/21 00:09:38;;;;;;;13.97;7.80;;;;;;;1.39;78.65;99761.50;125277;1095;65251;-92
2020/12/21 00:12:05;;;;;;;8.90;6.13;;;;;;;1.41;79.25;99751.83;125343;1096;65335;-90
2020/12/21 00:14:32;;;;;;;14.65;6.85;;;;;;;1.41;78.55;99754.46;125662;1096;65283;-92
2020/12/21 00:16:58;;;;;;;10.97;7.13;;;;;;;1.44;78.85;99752.60;125565;1095;65283;-87
2020/12/21 00:19:24;;;;;;;12.43;6.37;;;;;;;1.50;78.98;99749.83;125653;1095;65133;-89
2020/12/21 00:21:53;;;;;;;11.47;7.83;;;;;;;1.52;78.83;99747.15;125347;1096;65134;-89
2020/12/21 00:24:21;;;;;;;12.23;6.97;;;;;;;1.50;78.69;99751.59;125845;1095;65102;-89
2020/12/21 00:26:50;;;;;;;16.87;7.37;;;;;;;1.47;78.94;99770.11;125574;1095;65242;-88
2020/12/21 00:29:18;;;;;;;14.43;7.73;;;;;;;1.46;79.09;99770.98;125351;1096;65278;-93
2020/12/21 00:31:46;;;;;;;9.83;6.07;;;;;;;1.47;79.22;99772.74;125158;1096;65124;-91
2020/12/21 00:34:13;;;;;;;10.17;6.23;;;;;;;1.52;79.09;99776.97;125549;1097;65168;-88
2020/12/21 00:36:44;;;;;;;10.13;6.90;;;;;;;1.56;78.99;99769.88;125392;1097;65172;-92
2020/12/21 00:39:12;;;;;;;14.37;8.47;;;;;;;1.55;78.81;99779.55;125551;1095;65229;-90
2020/12/21 00:41:39;;;;;;;16.83;8.00;;;;;;;1.56;79.05;99785.67;125381;1097;65159;-92
2020/12/21 00:44:06;;;;;;;15.47;7.60;;;;;;;1.59;79.18;99785.58;125341;1097;65275;-88
2020/12/21 00:46:32;;;;;;;15.80;8.17;;;;;;;1.59;78.75;99785.58;125714;1097;65227;-90
2020/12/21 00:49:00;;;;;;;13.40;7.20;;;;;;;1.59;79.17;99790.84;125592;1095;65303;-90
2020/12/21 00:51:27;;;;;;;12.27;7.37;;;;;;;1.64;79.06;99783.70;125373;1096;65254;-90
2020/12/21 00:53:53;;;;;;;15.93;8.00;;;;;;;1.72;79.24;99789.67;125334;1095;65332;-91
2020/12/21 00:56:21;;;;;;;12.63;8.17;;;;;;;1.78;79.01;99792.16;125679;1095;65150;-91
2020/12/21 00:58:48;;;;;;;14.73;8.57;;;;;;;1.84;78.76;99794.61;125678;1095;65137;-92
2020/12/21 01:01:26;;;;;;;13.10;8.13;;;;;;;1.88;78.79;99791.01;125762;1095;65147;-90
2020/12/21 01:03:53;;;;;;;13.13;7.97;;;;;;;1.95;78.73;99793.48;125322;1095;65245;-89
2020/12/21 01:06:20;;;;;;;12.57;7.60;;;;;;;2.01;78.57;99794.20;125734;1095;65213;-91
2020/12/21 01:08:46;;;;;;;12.07;7.37;;;;;;;2.08;78.84;99792.27;125309;1096;65159;-91
2020/12/21 01:11:14;;;;;;;10.83;7.27;;;;;;;2.14;78.91;99805.28;125530;1095;65234;-90
2020/12/21 01:13:43;;;;;;;10.40;6.57;;;;;;;2.19;78.59;99800.77;125313;1096;65208;-89
2020/12/21 01:16:10;;;;;;;11.73;7.50;;;;;;;2.21;78.72;99790.17;125779;1095;65306;-87
2020/12/21 01:18:37;;;;;;;12.93;8.03;;;;;;;2.24;78.88;99793.61;125300;1095;65156;-92
2020/12/21 01:21:04;;;;;;;11.67;6.80;;;;;;;2.27;78.60;99784.75;125370;1096;65153;-90
2020/12/21 01:23:31;;;;;;;10.17;6.70;;;;;;;2.31;78.67;99787.27;125361;1096;65149;-92
2020/12/21 01:25:58;;;;;;;12.33;6.77;;;;;;;2.37;78.60;99797.65;125571;1096;65313;-90
2020/12/21 01:28:24;;;;;;;10.70;6.53;;;;;;;2.43;78.51;99786.94;125708;1097;65540;-90
2020/12/21 01:30:51;;;;;;;9.40;6.70;;;;;;;2.49;78.43;99795.59;125584;1095;65163;-89
2020/12/21 01:33:17;;;;;;;12.67;7.57;;;;;;;2.53;78.64;99791.94;125329;1095;65214;-92
2020/12/21 01:35:44;;;;;;;13.43;7.50;;;;;;;2.53;78.39;99797.22;125423;1095;65163;-91
2020/12/21 01:38:11;;;;;;;12.90;7.37;;;;;;;2.52;78.46;99796.35;125805;1095;65280;-90
2020/12/21 01:40:37;;;;;;;12.20;6.47;;;;;;;2.53;78.79;99795.44;125321;1095;65150;-94
2020/12/21 01:43:05;;;;;;;13.33;7.87;;;;;;;2.55;78.39;99795.42;125300;1097;65182;-87
2020/12/21 01:45:31;;;;;;;12.43;7.50;;;;;;;2.56;78.56;99791.88;125536;1095;65166;-90
2020/12/21 01:47:58;;;;;;;16.40;8.00;;;;;;;2.58;78.67;99792.69;125751;1095;65223;-93
2020/12/21 01:50:25;;;;;;;12.60;7.47;;;;;;;2.60;78.69;99801.41;125648;1095;65112;-89
2020/12/21 01:52:51;;;;;;;13.90;8.77;;;;;;;2.63;78.41;99801.34;125618;1095;65114;-90
2020/12/21 01:55:19;;;;;;;15.97;9.20;;;;;;;2.65;78.33;99800.38;125565;1097;65280;-89
2020/12/21 01:57:46;;;;;;;17.30;8.67;;;;;;;2.67;78.84;99800.33;125519;1095;65546;-92
2020/12/21 02:00:12;;;;;;;14.50;8.40;;;;;;;2.72;78.51;99808.98;125425;1095;65164;-89
2020/12/21 02:02:39;;;;;;;11.83;8.00;;;;;;;2.73;78.63;99807.20;125389;1095;65335;-88
2020/12/21 02:05:05;;;;;;;11.20;7.37;;;;;;;2.78;78.79;99807.95;125557;1095;65210;-90
2020/12/21 02:07:33;;;;;;;10.90;6.80;;;;;;;2.83;78.29;99803.41;125410;1097;65284;-90
2020/12/21 02:09:59;;;;;;;10.75;7.20;;;;;;;2.87;78.72;99808.56;125331;1096;65233;-90
2020/12/21 02:12:25;;;;;;;11.27;7.53;;;;;;;2.89;78.25;99806.73;125352;1095;65203;-91
2020/12/21 02:14:52;;;;;;;14.20;7.87;;;;;;;2.90;78.30;99800.55;125511;1095;65252;-89
2020/12/21 02:17:18;;;;;;;11.57;7.67;;;;;;;2.89;78.47;99793.55;125571;1095;65241;-93
2020/12/21 02:19:44;;;;;;;16.30;8.97;;;;;;;2.89;78.50;99798.82;125857;1096;65188;-93
2020/12/21 02:22:11;;;;;;;13.20;8.30;;;;;;;2.87;78.51;99803.29;125637;1095;65304;-94
2020/12/21 02:24:39;;;;;;;14.07;8.20;;;;;;;2.86;78.61;99795.39;125602;1095;65008;-89
2020/12/21 02:27:07;;;;;;;10.05;7.40;;;;;;;2.86;78.61;99791.02;125889;1095;65165;-88
2020/12/21 02:29:33;;;;;;;12.90;7.40;;;;;;;2.88;78.49;99794.45;125386;1097;65147;-89
2020/12/21 02:31:59;;;;;;;12.13;7.60;;;;;;;2.91;78.34;99794.35;125454;1095;65223;-89
2020/12/21 02:34:27;;;;;;;13.23;7.37;;;;;;;2.93;78.44;99795.20;125843;1095;65139;-89
2020/12/21 02:36:55;;;;;;;13.13;8.70;;;;;;;2.94;77.98;99793.42;125751;1095;65271;-92
2020/12/21 02:39:23;;;;;;;17.57;9.47;;;;;;;2.94;78.33;99794.28;125295;1095;65239;-90
2020/12/21 02:41:51;;;;;;;15.50;8.97;;;;;;;2.93;78.73;99800.47;125729;1095;65160;-94
2020/12/21 02:44:18;;;;;;;12.03;8.13;;;;;;;2.91;78.11;99794.35;125825;1095;65012;-94
2020/12/21 02:46:45;;;;;;;11.73;7.40;;;;;;;2.92;78.03;99787.30;125454;1097;65185;-91
2020/12/21 02:49:12;;;;;;;11.70;7.07;;;;;;;2.92;78.16;99796.08;125642;1095;65133;-91
2020/12/21 02:51:38;;;;;;;10.77;6.30;;;;;;;2.94;78.23;99793.42;125328;1097;65162;-89
2020/12/21 02:54:05;;;;;;;14.30;6.77;;;;;;;2.95;78.15;99796.01;125886;1096;65140;-93
2020/12/21 02:56:31;;;;;;;11.77;7.67;;;;;;;2.96;78.08;99800.37;125329;1097;65098;-92
2020/12/21 02:58:58;;;;;;;10.17;6.90;;;;;;;2.95;78.62;99801.28;125323;1097;65298;-90
2020/12/21 03:01:25;;;;;;;13.37;7.87;;;;;;;2.96;78.62;99796.87;125919;1095;65146;-90
2020/12/21 03:03:51;;;;;;;10.57;7.30;;;;;;;2.93;78.05;99805.75;125279;1097;65252;-89
2020/12/21 03:06:18;;;;;;;11.27;7.33;;;;;;;2.93;78.27;99807.53;125320;1097;65245;-92
2020/12/21 03:08:44;;;;;;;8.85;6.20;;;;;;;2.93;78.30;99797.84;125658;1095;65176;-88
2020/12/21 03:11:11;;;;;;;11.63;7.10;;;;;;;2.94;78.33;99810.11;125913;1095;65258;-88
2020/12/21 03:13:37;;;;;;;11.00;7.10;;;;;;;2.96;78.22;99810.06;125413;1095;65185;-88
2020/12/21 03:16:05;;;;;;;11.83;7.77;;;;;;;2.96;78.05;99796.87;125604;1095;65678;-92
2020/12/21 03:18:32;;;;;;;11.03;7.33;;;;;;;2.95;78.10;99798.64;125397;1097;65230;-91
2020/12/21 03:20:59;;;;;;;12.13;7.70;;;;;;;2.96;78.41;99802.14;125799;1095;65226;-92
2020/12/21 03:23:25;;;;;;;15.23;7.73;;;;;;;2.95;78.13;99805.70;125455;1096;65639;-91
2020/12/21 03:25:51;;;;;;;11.27;6.63;;;;;;;2.95;78.44;99803.92;125434;1097;65182;-88
2020/12/21 03:28:18;;;;;;;11.73;7.00;;;;;;;2.96;78.16;99794.23;125483;1095;65293;-93
2020/12/21 03:30:44;;;;;;;9.63;6.40;;;;;;;2.97;78.51;99798.59;125544;1095;65166;-88
2020/12/21 03:33:11;;;;;;;11.27;7.37;;;;;;;2.97;78.55;99790.67;125343;1097;65230;-90
2020/12/21 03:35:38;;;;;;;12.10;7.63;;;;;;;2.95;78.49;99790.73;125270;1097;65112;-96
2020/12/21 03:38:05;;;;;;;13.43;8.53;;;;;;;2.94;78.22;99793.42;125725;1095;65204;-88
2020/12/21 03:40:31;;;;;;;11.27;7.23;;;;;;;2.92;78.28;99789.94;125375;1095;65347;-93
2020/12/21 03:42:57;;;;;;;10.83;6.77;;;;;;;2.92;78.09;99795.22;125467;1097;65293;-90
2020/12/21 03:45:24;;;;;;;10.47;7.20;;;;;;;2.93;78.02;99794.34;125787;1096;65124;-88
2020/12/21 03:47:50;;;;;;;12.47;7.60;;;;;;;2.94;78.23;99803.97;125440;1097;65130;-89
2020/12/21 03:50:18;;;;;;;12.93;7.70;;;;;;;2.96;78.57;99796.87;125386;1097;65185;-93
2020/12/21 03:52:45;;;;;;;13.53;8.07;;;;;;;2.96;78.59;99802.14;125467;1095;65124;-91
2020/12/21 03:55:12;;;;;;;12.70;8.33;;;;;;;2.94;78.11;99796.92;125447;1097;65241;-91
2020/12/21 03:57:38;;;;;;;14.67;7.97;;;;;;;2.93;78.15;99789.06;125896;1095;65533;-91
2020/12/21 04:00:07;;;;;;;11.60;8.10;;;;;;;2.93;78.63;99792.56;125566;1095;65169;-90
2020/12/21 04:02:38;;;;;;;10.70;6.87;;;;;;;2.95;78.40;99789.87;125413;1097;65179;-92
2020/12/21 04:05:05;;;;;;;12.10;7.50;;;;;;;2.95;78.27;99801.28;125685;1095;65370;-88
2020/12/21 04:07:34;;;;;;;15.70;8.60;;;;;;;2.96;78.13;99792.45;125445;1097;65226;-91
2020/12/21 04:10:00;;;;;;;13.13;9.03;;;;;;;2.95;78.31;99792.51;125536;1097;65150;-94
2020/12/21 04:12:26;;;;;;;13.23;7.93;;;;;;;2.93;78.51;99791.70;125341;1097;65190;-87
2020/12/21 04:14:53;;;;;;;11.80;7.47;;;;;;;2.91;78.05;99786.44;125638;1095;65130;-90
2020/12/21 04:17:19;;;;;;;12.45;7.30;;;;;;;2.90;78.01;99781.22;125434;1095;65267;-92
2020/12/21 04:19:45;;;;;;;10.07;6.67;;;;;;;2.89;78.10;99790.05;125346;1095;65178;-90
2020/12/21 04:22:12;;;;;;;14.80;8.30;;;;;;;2.89;78.11;99790.05;125544;1095;65242;-89
2020/12/21 04:24:38;;;;;;;15.00;8.90;;;;;;;2.89;78.25;99785.63;125653;1095;65079;-90
2020/12/21 04:27:04;;;;;;;14.77;9.73;;;;;;;2.89;78.38;99790.05;125923;1095;65457;-89
2020/12/21 04:29:31;;;;;;;16.93;9.77;;;;;;;2.87;78.54;99787.46;125535;1095;65281;-94
2020/12/21 04:31:57;;;;;;;17.50;9.45;;;;;;;2.85;78.32;99791.89;125589;1096;65174;-91
2020/12/21 04:34:25;;;;;;;12.23;7.90;;;;;;;2.84;77.99;99787.53;125360;1097;65121;-91
2020/12/21 04:36:52;;;;;;;13.03;7.40;;;;;;;2.82;78.37;99793.77;125716;1097;65109;-94
2020/12/21 04:39:22;;;;;;;9.67;6.20;;;;;;;2.81;78.01;99792.91;125545;1095;65198;-94
2020/12/21 04:41:56;;;;;;;10.60;6.30;;;;;;;2.81;78.12;99786.77;125584;1096;65287;-93
2020/12/21 04:44:24;;;;;;;11.17;7.23;;;;;;;2.81;78.36;99787.64;125463;1095;65159;-89
2020/12/21 04:46:55;;;;;;;14.43;8.67;;;;;;;2.81;78.40;99792.91;125649;1095;65198;-90
2020/12/21 04:49:22;;;;;;;13.13;7.57;;;;;;;2.79;78.44;99783.30;125465;1095;65227;-92
2020/12/21 04:51:50;;;;;;;12.70;7.80;;;;;;;2.79;78.16;99794.70;125390;1097;65242;-93
2020/12/21 04:54:20;;;;;;;11.70;6.77;;;;;;;2.80;78.02;99796.46;125493;1097;65223;-92
2020/12/21 04:56:47;;;;;;;10.13;6.03;;;;;;;2.84;78.02;99802.50;125379;1095;65562;-95
2020/12/21 04:59:14;;;;;;;9.80;6.23;;;;;;;2.86;78.44;99805.95;125940;1095;65182;-89
2020/12/21 05:01:41;;;;;;;10.83;7.03;;;;;;;2.88;78.44;99810.29;125385;1097;65605;-93
2020/12/21 05:04:07;;;;;;;12.97;6.73;;;;;;;2.88;78.22;99807.65;125328;1093;65239;-90
2020/12/21 05:06:34;;;;;;;10.32;6.80;;;;;;;2.88;78.24;99815.56;125862;1096;65237;-90
2020/12/21 05:09:05;;;;;;;9.53;6.33;;;;;;;2.88;78.53;99807.65;125351;1095;65210;-88
2020/12/21 05:11:34;;;;;;;9.20;6.00;;;;;;;2.89;78.34;99806.73;125385;1097;65242;-93
2020/12/21 05:14:05;;;;;;;10.33;6.17;;;;;;;2.90;78.11;99803.19;125598;1095;65182;-86
2020/12/21 05:16:32;;;;;;;13.33;7.40;;;;;;;2.93;77.91;99811.03;125322;1095;65156;-95
2020/12/21 05:18:58;;;;;;;10.97;6.53;;;;;;;2.97;78.35;99811.78;125275;1096;65232;-91
2020/12/21 05:21:29;;;;;;;11.23;6.60;;;;;;;2.99;78.25;99807.35;125449;1097;65105;-90
2020/12/21 05:24:00;;;;;;;14.07;7.40;;;;;;;3.00;77.82;99814.35;125559;1095;65242;-91
2020/12/21 05:26:33;;;;;;;10.23;6.87;;;;;;;3.00;77.76;99809.08;125527;1095;65154;-90
2020/12/21 05:29:00;;;;;;;11.00;6.65;;;;;;;3.00;78.23;99808.21;125576;1095;65152;-94
2020/12/21 05:31:28;;;;;;;9.00;6.47;;;;;;;3.00;78.50;99814.35;125462;1097;65268;-87
2020/12/21 05:33:54;;;;;;;11.70;6.83;;;;;;;3.03;78.12;99813.38;125717;1096;65227;-92
2020/12/21 05:36:23;;;;;;;14.03;8.20;;;;;;;3.05;78.09;99816.83;125699;1095;65156;-90
2020/12/21 05:39:02;;;;;;;16.00;8.00;;;;;;;3.06;77.81;99818.59;125448;1097;65537;-90
2020/12/21 05:41:28;;;;;;;14.53;8.10;;;;;;;3.06;78.40;99823.86;125290;1095;65163;-93
2020/12/21 05:43:59;;;;;;;14.80;9.10;;;;;;;3.03;78.17;99814.25;125291;1095;65794;-93
2020/12/21 05:46:26;;;;;;;15.17;9.00;;;;;;;3.03;77.85;99818.66;125579;1097;65210;-90
2020/12/21 05:48:57;;;;;;;16.60;10.20;;;;;;;3.04;77.72;99813.33;125417;1097;65174;-92
2020/12/21 05:51:26;;;;;;;16.57;9.43;;;;;;;3.05;78.09;99816.83;125387;1097;65172;-90
2020/12/21 05:53:59;;;;;;;19.37;11.23;;;;;;;3.04;77.78;99812.47;125335;1095;65169;-91
2020/12/21 05:56:27;;;;;;;23.27;11.63;;;;;;;3.04;78.15;99825.66;125389;1095;65099;-89
2020/12/21 05:58:55;;;;;;;18.45;11.25;;;;;;;3.02;78.12;99824.85;125362;1095;65222;-90
2020/12/21 06:01:23;;;;;;;19.93;10.43;;;;;;;3.02;78.23;99819.58;125368;1095;65134;-92
2020/12/21 06:03:58;;;;;;;16.00;9.13;;;;;;;3.02;78.15;99832.77;125510;1095;65255;-90
2020/12/21 06:06:29;;;;;;;20.03;8.93;;;;;;;3.04;78.00;99829.16;125302;1097;65258;-90
2020/12/21 06:09:04;;;;;;;15.53;8.87;;;;;;;3.07;77.90;99823.81;125243;1097;65329;-93
2020/12/21 06:11:34;;;;;;;15.47;8.97;;;;;;;3.10;77.81;99820.20;125264;1097;65646;-91
2020/12/21 06:14:15;;;;;;;14.20;8.37;;;;;;;3.10;78.04;99822.84;125257;1097;65155;-90
2020/12/21 06:16:43;;;;;;;15.17;9.53;;;;;;;3.09;78.24;99826.40;125318;1097;65232;-92
2020/12/21 06:19:14;;;;;;;22.53;9.73;;;;;;;3.06;78.16;99823.86;125286;1097;65630;-88
2020/12/21 06:21:53;;;;;;;18.70;9.13;;;;;;;3.03;78.62;99831.86;125275;1095;65287;-89
2020/12/21 06:24:21;;;;;;;15.30;8.13;;;;;;;2.98;78.65;99830.20;125265;1097;65176;-92
2020/12/21 06:26:48;;;;;;;14.30;8.07;;;;;;;2.96;78.32;99829.39;125535;1095;65284;-94
2020/12/21 06:29:20;;;;;;;14.50;8.53;;;;;;;2.94;78.19;99828.58;125342;1097;65201;-90
2020/12/21 06:31:48;;;;;;;16.10;9.93;;;;;;;2.91;78.28;99831.29;125317;1096;65251;-91
2020/12/21 06:34:30;;;;;;;27.77;11.87;;;;;;;2.87;78.27;99829.67;125285;1096;65262;-88
2020/12/21 06:37:09;;;;;;;21.63;11.97;;;;;;;2.85;78.50;99834.10;125281;1097;65153;-93
2020/12/21 06:39:37;;;;;;;18.13;10.57;;;;;;;2.83;79.06;99835.92;125532;1095;65133;-90
2020/12/21 06:42:07;;;;;;;17.33;10.03;;;;;;;2.83;78.54;99837.70;125398;1097;65180;-88
2020/12/21 06:44:37;;;;;;;15.07;9.00;;;;;;;2.85;78.59;99833.23;125572;1095;65179;-89
2020/12/21 06:47:03;;;;;;;18.13;9.57;;;;;;;2.87;78.66;99831.45;125349;1096;65182;-89
2020/12/21 06:49:30;;;;;;;17.90;9.30;;;;;;;2.88;78.60;99833.17;125582;1095;65265;-93
2020/12/21 06:51:56;;;;;;;22.70;11.20;;;;;;;2.88;78.82;99836.67;125669;1095;65159;-90
2020/12/21 06:54:23;;;;;;;20.23;10.98;;;;;;;2.87;78.71;99839.36;125364;1096;65176;-91
2020/12/21 06:56:51;;;;;;;22.03;12.03;;;;;;;2.89;78.69;99832.25;125375;1096;65141;-92
2020/12/21 06:59:19;;;;;;;30.80;13.30;;;;;;;2.91;78.61;99840.98;125322;1096;65252;-87
2020/12/21 07:01:50;;;;;;;18.03;10.33;;;;;;;2.93;78.56;99845.33;125604;1095;65201;-88
2020/12/21 07:04:20;;;;;;;34.80;14.60;;;;;;;2.96;78.54;99844.36;125568;1095;65144;-88
2020/12/21 07:06:49;;;;;;;33.03;13.97;;;;;;;2.96;78.56;99837.30;125305;1097;65179;-89
2020/12/21 07:09:27;;;;;;;27.17;12.73;;;;;;;2.98;78.46;99846.03;125628;1095;65086;-89
2020/12/21 07:11:56;;;;;;;28.30;13.13;;;;;;;2.98;78.43;99838.12;125327;1096;65505;-89
2020/12/21 07:14:24;;;;;;;33.00;14.83;;;;;;;2.98;78.19;99843.39;125659;1095;65153;-90
2020/12/21 07:17:10;;;;;;;26.60;12.00;;;;;;;3.01;78.09;99838.96;125315;1097;65166;-92
2020/12/21 07:19:39;;;;;;;34.60;15.97;;;;;;;3.03;78.59;99837.13;125623;1095;65086;-86
2020/12/21 07:22:07;;;;;;;27.07;13.67;;;;;;;3.04;78.78;99836.22;125616;1095;65151;-87
2020/12/21 07:24:34;;;;;;;26.50;13.53;;;;;;;3.05;78.37;99841.44;125621;1095;65265;-89
2020/12/21 07:27:02;;;;;;;38.83;15.90;;;;;;;3.05;78.53;99836.16;125387;1096;65513;-89
2020/12/21 07:29:39;;;;;;;22.40;11.75;;;;;;;3.08;78.81;99841.37;125588;1095;65146;-89
2020/12/21 07:32:07;;;;;;;15.90;9.60;;;;;;;3.11;78.30;99832.48;125601;1096;65035;-87
2020/12/21 07:34:34;;;;;;;17.80;9.97;;;;;;;3.14;78.04;99841.19;125614;1096;65190;-85
2020/12/21 07:37:09;;;;;;;20.57;11.70;;;;;;;3.16;77.83;99830.58;125652;1095;65316;-92
2020/12/21 07:39:35;;;;;;;20.75;11.75;;;;;;;3.17;78.24;99833.17;125338;1096;65255;-89
2020/12/21 07:42:08;;;;;;;17.80;9.87;;;;;;;3.20;78.07;99837.52;125324;1096;65207;-89
2020/12/21 07:44:37;;;;;;;17.50;9.70;;;;;;;3.23;78.44;99829.48;125305;1096;65233;-89
2020/12/21 07:47:07;;;;;;;19.83;10.20;;;;;;;3.25;77.96;99841.75;125628;1095;65191;-86
2020/12/21 07:49:36;;;;;;;18.27;10.00;;;;;;;3.30;78.77;99854.78;125574;1095;65281;-91
2020/12/21 07:52:05;;;;;;;16.63;9.70;;;;;;;3.31;78.49;99858.29;125610;1096;65077;-95
2020/12/21 07:54:43;;;;;;;14.95;9.25;;;;;;;3.30;77.92;99856.56;125695;1095;65162;-93
2020/12/21 07:57:12;;;;;;;22.83;12.07;;;;;;;3.28;78.42;99853.98;125654;1096;65149;-88
2020/12/21 07:59:39;;;;;;;25.63;12.37;;;;;;;3.30;78.49;99852.14;125471;1096;65150;-89
2020/12/21 08:02:08;;;;;;;33.17;14.80;;;;;;;3.32;78.62;99860.91;125638;1095;65150;-91
2020/12/21 08:04:34;;;;;;;26.57;13.27;;;;;;;3.35;77.99;99852.02;125723;1095;65133;-92
2020/12/21 08:07:12;;;;;;;27.63;13.87;;;;;;;3.37;77.82;99864.28;125637;1095;65159;-92
2020/12/21 08:09:40;;;;;;;27.47;13.30;;;;;;;3.39;77.68;99856.31;125681;1095;65176;-90
2020/12/21 08:12:15;;;;;;;28.17;14.33;;;;;;;3.38;77.99;99858.09;125644;1095;65146;-89
2020/12/21 08:14:42;;;;;;;;;;;;;;;3.41;77.98;99859.76;126239;1095;65160;-88
2020/12/21 08:17:19;;;;;;;19.70;11.47;;;;;;;3.41;78.10;99863.27;126103;1095;65165;-87
2020/12/21 08:19:55;;;;;;;23.95;11.45;;;;;;;3.45;77.97;99862.27;125852;1096;65162;-89
2020/12/21 08:22:27;;;;;;;19.87;10.30;;;;;;;3.50;77.81;99851.58;125871;1095;65190;-92
2020/12/21 08:25:14;;;;;;;21.53;12.23;;;;;;;3.55;77.86;99849.63;125646;1095;65201;-92
2020/12/21 08:27:52;;;;;;;24.40;13.50;;;;;;;3.59;78.41;99856.56;125457;1095;65182;-90
2020/12/21 08:30:22;;;;;;;19.93;11.10;;;;;;;3.64;77.50;99856.42;125414;1095;65176;-95
2020/12/21 08:32:52;;;;;;;15.43;9.50;;;;;;;3.68;77.79;99850.11;125708;1095;65190;-88
2020/12/21 08:35:29;;;;;;;15.97;9.40;;;;;;;3.70;77.99;99851.81;125515;1097;65227;-91
2020/12/21 08:38:17;;;;;;;18.73;9.30;;;;;;;3.73;77.45;99861.41;125604;1095;65160;-92
2020/12/21 08:40:53;;;;;;;16.30;9.75;;;;;;;3.72;77.40;99865.83;125531;1095;65160;-87
2020/12/21 08:43:20;;;;;;;17.55;10.20;;;;;;;3.74;77.54;99858.71;125579;1095;65156;-89
2020/12/21 08:45:48;;;;;;;17.20;9.33;;;;;;;3.80;77.60;99855.02;125601;1095;65252;-89
2020/12/21 08:48:15;;;;;;;15.67;9.30;;;;;;;3.88;77.54;99857.41;125526;1095;65268;-90
2020/12/21 08:50:41;;;;;;;21.93;11.67;;;;;;;3.95;77.20;99864.25;125305;1096;65239;-89
2020/12/21 08:53:08;;;;;;;21.43;12.23;;;;;;;4.01;77.03;99849.06;125248;1095;65150;-93
2020/12/21 08:55:34;;;;;;;22.03;12.30;;;;;;;4.09;77.25;99869.95;125563;1096;65338;-90
2020/12/21 08:58:00;;;;;;;21.70;11.47;;;;;;;4.19;77.88;99857.27;125494;1095;65192;-91
2020/12/21 09:00:27;;;;;;;17.17;9.70;;;;;;;4.31;77.70;99848.94;125348;1095;65225;-90
2020/12/21 09:02:53;;;;;;;16.87;9.57;;;;;;;4.45;77.46;99853.74;125363;1096;65175;-92
2020/12/21 09:05:19;;;;;;;18.50;10.27;;;;;;;4.55;77.38;99865.75;125353;1096;65290;-90
2020/12/21 09:07:46;;;;;;;23.83;11.90;;;;;;;4.63;76.97;99860.19;125284;1096;65245;-88
2020/12/21 09:10:12;;;;;;;20.33;10.50;;;;;;;4.68;77.07;99852.95;125553;1095;65169;-93
2020/12/21 09:12:39;;;;;;;17.57;10.13;;;;;;;4.74;76.83;99858.03;125573;1095;65255;-94
2020/12/21 09:15:06;;;;;;;17.57;9.87;;;;;;;4.83;77.67;99866.48;125543;1095;65133;-89
2020/12/21 09:17:32;;;;;;;19.77;9.80;;;;;;;4.88;76.96;99864.55;125284;1096;65192;-94
2020/12/21 09:19:58;;;;;;;19.23;10.00;;;;;;;4.94;77.31;99873.20;125552;1095;65137;-88
2020/12/21 09:22:26;;;;;;;17.00;9.70;;;;;;;4.99;77.44;99864.17;125545;1095;65274;-90
2020/12/21 09:24:53;;;;;;;18.90;10.30;;;;;;;5.02;76.73;99860.53;125592;1095;65156;-94
2020/12/21 09:27:19;;;;;;;18.37;9.23;;;;;;;5.02;76.91;99871.98;125340;1095;65194;-90
2020/12/21 09:29:46;;;;;;;15.65;9.50;;;;;;;5.00;76.59;99871.19;125281;1096;65601;-90
2020/12/21 09:32:12;;;;;;;15.40;9.43;;;;;;;4.99;76.86;99869.47;125326;1096;65242;-89
2020/12/21 09:34:38;;;;;;;24.15;11.55;;;;;;;4.96;76.82;99864.27;125550;1095;65149;-92
2020/12/21 09:37:05;;;;;;;15.80;8.77;;;;;;;4.98;76.48;99873.04;125560;1095;65133;-88
2020/12/21 09:39:32;;;;;;;14.50;8.97;;;;;;;5.06;76.92;99880.69;125344;1096;65259;-90
2020/12/21 09:41:58;;;;;;;16.90;10.05;;;;;;;5.13;76.41;99871.60;125542;1095;65268;-88
2020/12/21 09:44:25;;;;;;;20.70;9.13;;;;;;;5.21;76.30;99873.96;125292;1096;65252;-88
2020/12/21 09:46:51;;;;;;;22.57;9.83;;;;;;;5.24;76.55;99858.84;125589;1096;65127;-89
2020/12/21 09:49:18;;;;;;;21.77;10.03;;;;;;;5.25;76.38;99857.91;125333;1096;65166;-93
2020/12/21 09:51:51;;;;;;;18.83;9.53;;;;;;;5.24;76.32;99864.13;125308;1096;65104;-90
2020/12/21 09:54:19;;;;;;;17.00;8.47;;;;;;;5.21;75.66;99850.98;125527;1095;65319;-89
2020/12/21 09:56:48;;;;;;;18.97;9.53;;;;;;;5.14;76.58;99858.30;125597;1095;65133;-91
2020/12/21 09:59:15;;;;;;;18.17;10.00;;;;;;;5.14;76.21;99855.66;125538;1095;65124;-90
2020/12/21 10:01:42;;;;;;;13.27;7.47;;;;;;;5.27;76.96;99865.79;125568;1095;65156;-92
2020/12/21 10:04:08;;;;;;;19.35;9.30;;;;;;;5.35;76.89;99863.73;125519;1095;65246;-93
2020/12/21 10:06:35;;;;;;;21.27;9.73;;;;;;;5.36;76.28;99862.81;125277;1095;65208;-87
2020/12/21 10:09:01;;;;;;;17.90;8.87;;;;;;;5.35;76.09;99863.73;125484;1095;65166;-92
2020/12/21 10:11:27;;;;;;;19.42;9.80;;;;;;;5.36;76.39;99858.38;125297;1096;65153;-90
2020/12/21 10:13:54;;;;;;;20.33;10.40;;;;;;;5.46;76.53;99853.58;125351;1096;65160;-89
2020/12/21 10:16:21;;;;;;;17.90;8.95;;;;;;;5.57;76.19;99854.03;125339;1096;65211;-94
2020/12/21 10:18:47;;;;;;;14.40;7.53;;;;;;;5.64;76.58;99850.21;125508;1095;65185;-91
2020/12/21 10:21:14;;;;;;;13.03;6.65;;;;;;;5.80;76.21;99845.19;125551;1095;65112;-87
2020/12/21 10:23:40;;;;;;;13.73;7.37;;;;;;;5.98;75.81;99854.22;125266;1096;65160;-94
2020/12/21 10:26:07;;;;;;;11.90;7.13;;;;;;;5.96;75.65;99842.80;125523;1095;65149;-87
2020/12/21 10:28:33;;;;;;;11.13;6.57;;;;;;;5.94;75.92;99848.17;125534;1095;65146;-94
2020/12/21 10:30:59;;;;;;;14.97;7.40;;;;;;;5.95;76.47;99849.89;125572;1095;65192;-89
2020/12/21 10:33:26;;;;;;;15.43;7.20;;;;;;;6.01;76.20;99858.52;125539;1096;65150;-89
2020/12/21 10:35:52;;;;;;;20.27;8.70;;;;;;;5.99;75.75;99861.25;125353;1095;65197;-89
2020/12/21 10:38:19;;;;;;;18.40;9.70;;;;;;;6.01;76.16;99851.44;125323;1095;65153;-90
2020/12/21 10:40:46;;;;;;;17.37;9.07;;;;;;;6.06;75.56;99854.77;125487;1095;65185;-88
2020/12/21 10:43:12;;;;;;;12.10;7.10;;;;;;;6.17;74.89;99855.20;125501;1095;65152;-89
2020/12/21 10:45:39;;;;;;;20.40;9.27;;;;;;;6.18;76.10;99848.95;125510;1096;65197;-90
2020/12/21 10:48:06;;;;;;;25.00;10.57;;;;;;;6.18;75.69;99848.95;125493;1096;65140;-88
2020/12/21 10:50:33;;;;;;;19.97;9.37;;;;;;;6.21;76.26;99851.47;125549;1095;65249;-93
2020/12/21 10:52:59;;;;;;;19.73;8.90;;;;;;;6.23;76.04;99846.98;125535;1095;65139;-87
2020/12/21 10:55:25;;;;;;;19.60;10.00;;;;;;;6.25;76.07;99849.56;125553;1095;65761;-88
2020/12/21 10:57:52;;;;;;;17.50;9.03;;;;;;;6.18;75.59;99842.80;125577;1095;65146;-88
2020/12/21 11:00:18;;;;;;;15.70;8.75;;;;;;;6.15;75.33;99841.11;125286;1095;65156;-89
2020/12/21 11:02:46;;;;;;;16.50;9.45;;;;;;;6.11;75.14;99838.67;125579;1095;65153;-91
2020/12/21 11:05:13;;;;;;;14.17;8.87;;;;;;;6.06;75.56;99846.81;125560;1095;65112;-90
2020/12/21 11:07:39;;;;;;;17.13;9.30;;;;;;;5.99;75.56;99840.03;125539;1095;65307;-90
2020/12/21 11:10:09;;;;;;;13.48;8.35;;;;;;;5.81;75.92;99844.25;125351;1095;65143;-89
2020/12/21 11:12:36;;;;;;;13.50;9.30;;;;;;;5.67;75.81;99838.65;125567;1095;65146;-88
2020/12/21 11:15:04;;;;;;;18.57;10.67;;;;;;;5.56;76.22;99830.25;125547;1095;65184;-92
2020/12/21 11:17:30;;;;;;;18.57;9.90;;;;;;;5.55;76.50;99839.98;125629;1095;65258;-88
2020/12/21 11:19:58;;;;;;;15.53;9.47;;;;;;;5.63;76.31;99832.59;125508;1096;65287;-92
2020/12/21 11:22:24;;;;;;;15.03;8.27;;;;;;;5.76;75.85;99832.97;125615;1095;65173;-86
2020/12/21 11:24:51;;;;;;;25.63;11.90;;;;;;;5.84;75.69;99832.66;125248;1095;65603;-92
2020/12/21 11:27:18;;;;;;;30.37;15.63;;;;;;;5.84;75.90;99830.86;125504;1095;65150;-89
2020/12/21 11:29:44;;;;;;;17.47;11.57;;;;;;;5.84;75.84;99838.81;125311;1095;65223;-89